sensor_id;sensor_type;location;lat;lon;timestamp;P1;durP1;ratioP1;P2;durP2;ratioP2
3000;SDS011;1510;51.072;6.678;2024-02-04T00:00:24;1005.37;;;919.97;;
3000;SDS011;1510;51.072;6.678;2024-02-04T00:02:51;1005.57;;;920.43;;
3000;SDS011;1510;51.072;6.678;2024-02-04T00:05:19;1013.60;;;927.23;;
3000;SDS011;1510;51.072;6.678;2024-02-04T00:07:46;978.60;;;893.73;;
3000;SDS011;1510;51.072;6.678;2024-02-04T00:10:13;1015.50;;;928.63;;
3000;SDS011;1510;51.072;6.678;2024-02-04T00:12:42;1018.83;;;931.30;;
3000;SDS011;1510;51.072;6.678;2024-02-04T00:15:09;1025.30;;;937.50;;
3000;SDS011;1510;51.072;6.678;2024-02-04T00:17:36;1042.60;;;954.40;;
3000;SDS011;1510;51.072;6.678;2024-02-04T00:20:03;1039.03;;;951.13;;
3000;SDS011;1510;51.072;6.678;2024-02-04T00:22:33;1036.20;;;948.33;;
3000;SDS011;1510;51.072;6.678;2024-02-04T00:24:59;1027.83;;;940.53;;
3000;SDS011;1510;51.072;6.678;2024-02-04T00:27:30;1029.97;;;941.20;;
3000;SDS011;1510;51.072;6.678;2024-02-04T00:29:56;1021.83;;;933.13;;
3000;SDS011;1510;51.072;6.678;2024-02-04T00:32:24;1031.67;;;942.57;;
3000;SDS011;1510;51.072;6.678;2024-02-04T00:34:51;1042.93;;;950.97;;
3000;SDS011;1510;51.072;6.678;2024-02-04T00:37:17;1045.83;;;954.10;;
3000;SDS011;1510;51.072;6.678;2024-02-04T00:39:45;1059.17;;;966.30;;
3000;SDS011;1510;51.072;6.678;2024-02-04T00:42:12;1057.13;;;964.90;;
3000;SDS011;1510;51.072;6.678;2024-02-04T00:44:39;1065.57;;;972.97;;
3000;SDS011;1510;51.072;6.678;2024-02-04T00:47:06;1025.63;;;935.57;;
3000;SDS011;1510;51.072;6.678;2024-02-04T00:49:33;1017.37;;;928.27;;
3000;SDS011;1510;51.072;6.678;2024-02-04T00:51:59;996.50;;;910.40;;
3000;SDS011;1510;51.072;6.678;2024-02-04T00:54:26;995.33;;;909.30;;
3000;SDS011;1510;51.072;6.678;2024-02-04T00:56:54;987.30;;;900.47;;
3000;SDS011;1510;51.072;6.678;2024-02-04T00:59:22;995.73;;;908.33;;
3000;SDS011;1510;51.072;6.678;2024-02-04T01:01:49;993.57;;;906.07;;
3000;SDS011;1510;51.072;6.678;2024-02-04T01:04:16;992.77;;;905.47;;
3000;SDS011;1510;51.072;6.678;2024-02-04T01:06:43;1030.77;;;942.67;;
3000;SDS011;1510;51.072;6.678;2024-02-04T01:09:10;1023.47;;;934.97;;
3000;SDS011;1510;51.072;6.678;2024-02-04T01:11:36;1025.50;;;937.70;;
3000;SDS011;1510;51.072;6.678;2024-02-04T01:14:05;1041.10;;;952.90;;
3000;SDS011;1510;51.072;6.678;2024-02-04T01:16:32;1020.17;;;931.57;;
3000;SDS011;1510;51.072;6.678;2024-02-04T01:18:59;1017.20;;;928.07;;
3000;SDS011;1510;51.072;6.678;2024-02-04T01:21:25;1021.80;;;933.60;;
3000;SDS011;1510;51.072;6.678;2024-02-04T01:23:53;1024.40;;;934.90;;
3000;SDS011;1510;51.072;6.678;2024-02-04T01:26:20;1052.13;;;962.57;;
3000;SDS011;1510;51.072;6.678;2024-02-04T01:28:48;1045.87;;;955.97;;
3000;SDS011;1510;51.072;6.678;2024-02-04T01:31:16;1047.40;;;957.10;;
3000;SDS011;1510;51.072;6.678;2024-02-04T01:33:43;1055.00;;;965.53;;
3000;SDS011;1510;51.072;6.678;2024-02-04T01:36:10;1052.73;;;962.83;;
3000;SDS011;1510;51.072;6.678;2024-02-04T01:38:37;1043.40;;;953.50;;
3000;SDS011;1510;51.072;6.678;2024-02-04T01:41:03;1051.87;;;962.70;;
3000;SDS011;1510;51.072;6.678;2024-02-04T01:43:30;1057.77;;;968.50;;
3000;SDS011;1510;51.072;6.678;2024-02-04T01:45:57;1064.43;;;975.27;;
3000;SDS011;1510;51.072;6.678;2024-02-04T01:48:25;1025.93;;;938.53;;
3000;SDS011;1510;51.072;6.678;2024-02-04T01:50:53;1032.50;;;944.90;;
3000;SDS011;1510;51.072;6.678;2024-02-04T01:53:23;1033.53;;;946.73;;
3000;SDS011;1510;51.072;6.678;2024-02-04T01:55:51;1042.37;;;954.77;;
3000;SDS011;1510;51.072;6.678;2024-02-04T01:58:20;1025.13;;;939.63;;
3000;SDS011;1510;51.072;6.678;2024-02-04T02:00:47;1020.40;;;934.70;;
3000;SDS011;1510;51.072;6.678;2024-02-04T02:03:16;1011.50;;;926.63;;
3000;SDS011;1510;51.072;6.678;2024-02-04T02:05:44;1029.87;;;944.43;;
3000;SDS011;1510;51.072;6.678;2024-02-04T02:08:12;992.93;;;909.47;;
3000;SDS011;1510;51.072;6.678;2024-02-04T02:10:39;996.90;;;912.80;;
3000;SDS011;1510;51.072;6.678;2024-02-04T02:13:09;995.33;;;910.67;;
3000;SDS011;1510;51.072;6.678;2024-02-04T02:15:43;1000.83;;;916.37;;
3000;SDS011;1510;51.072;6.678;2024-02-04T02:18:15;994.93;;;910.47;;
3000;SDS011;1510;51.072;6.678;2024-02-04T02:20:53;985.63;;;901.07;;
3000;SDS011;1510;51.072;6.678;2024-02-04T02:23:30;987.57;;;902.13;;
3000;SDS011;1510;51.072;6.678;2024-02-04T02:26:01;991.23;;;907.70;;
3000;SDS011;1510;51.072;6.678;2024-02-04T02:28:29;985.33;;;902.97;;
3000;SDS011;1510;51.072;6.678;2024-02-04T02:30:56;982.80;;;900.80;;
3000;SDS011;1510;51.072;6.678;2024-02-04T02:33:23;1032.30;;;947.50;;
3000;SDS011;1510;51.072;6.678;2024-02-04T02:35:51;1034.57;;;949.27;;
3000;SDS011;1510;51.072;6.678;2024-02-04T02:38:24;1049.40;;;962.80;;
3000;SDS011;1510;51.072;6.678;2024-02-04T02:40:58;1038.90;;;952.80;;
3000;SDS011;1510;51.072;6.678;2024-02-04T02:43:29;1048.63;;;961.57;;
3000;SDS011;1510;51.072;6.678;2024-02-04T02:45:58;1043.60;;;956.67;;
3000;SDS011;1510;51.072;6.678;2024-02-04T02:48:25;1023.87;;;939.40;;
3000;SDS011;1510;51.072;6.678;2024-02-04T02:50:53;1014.83;;;931.03;;
3000;SDS011;1510;51.072;6.678;2024-02-04T02:53:19;1014.67;;;929.93;;
3000;SDS011;1510;51.072;6.678;2024-02-04T02:55:46;1017.83;;;932.53;;
3000;SDS011;1510;51.072;6.678;2024-02-04T02:58:13;1025.30;;;938.97;;
3000;SDS011;1510;51.072;6.678;2024-02-04T03:00:42;1028.37;;;942.77;;
3000;SDS011;1510;51.072;6.678;2024-02-04T03:03:10;1011.87;;;927.17;;
3000;SDS011;1510;51.072;6.678;2024-02-04T03:05:37;1042.87;;;957.70;;
3000;SDS011;1510;51.072;6.678;2024-02-04T03:08:04;1045.13;;;958.87;;
3000;SDS011;1510;51.072;6.678;2024-02-04T03:10:31;1049.20;;;963.77;;
3000;SDS011;1510;51.072;6.678;2024-02-04T03:12:58;1041.57;;;956.67;;
3000;SDS011;1510;51.072;6.678;2024-02-04T03:15:25;1073.40;;;986.77;;
3000;SDS011;1510;51.072;6.678;2024-02-04T03:17:54;1047.23;;;959.77;;
3000;SDS011;1510;51.072;6.678;2024-02-04T03:20:20;1050.50;;;962.67;;
3000;SDS011;1510;51.072;6.678;2024-02-04T03:22:47;1058.97;;;972.00;;
3000;SDS011;1510;51.072;6.678;2024-02-04T03:25:14;1053.87;;;968.67;;
3000;SDS011;1510;51.072;6.678;2024-02-04T03:27:42;1046.40;;;962.20;;
3000;SDS011;1510;51.072;6.678;2024-02-04T03:30:09;1034.80;;;950.63;;
3000;SDS011;1510;51.072;6.678;2024-02-04T03:32:36;1021.50;;;938.13;;
3000;SDS011;1510;51.072;6.678;2024-02-04T03:35:06;1035.07;;;952.47;;
3000;SDS011;1510;51.072;6.678;2024-02-04T03:37:33;1036.90;;;954.67;;
3000;SDS011;1510;51.072;6.678;2024-02-04T03:40:00;1024.10;;;941.90;;
3000;SDS011;1510;51.072;6.678;2024-02-04T03:42:27;1013.97;;;933.83;;
3000;SDS011;1510;51.072;6.678;2024-02-04T03:44:53;1014.50;;;933.90;;
3000;SDS011;1510;51.072;6.678;2024-02-04T03:47:20;990.13;;;911.43;;
3000;SDS011;1510;51.072;6.678;2024-02-04T03:49:47;987.80;;;908.53;;
3000;SDS011;1510;51.072;6.678;2024-02-04T03:52:15;988.93;;;909.87;;
3000;SDS011;1510;51.072;6.678;2024-02-04T03:54:42;970.03;;;891.97;;
3000;SDS011;1510;51.072;6.678;2024-02-04T03:57:09;994.83;;;914.93;;
3000;SDS011;1510;51.072;6.678;2024-02-04T03:59:36;1004.03;;;924.13;;
3000;SDS011;1510;51.072;6.678;2024-02-04T04:02:02;979.37;;;900.40;;
3000;SDS011;1510;51.072;6.678;2024-02-04T04:04:29;972.57;;;893.57;;
3000;SDS011;1510;51.072;6.678;2024-02-04T04:06:56;997.40;;;918.90;;
3000;SDS011;1510;51.072;6.678;2024-02-04T04:09:25;967.70;;;890.10;;
3000;SDS011;1510;51.072;6.678;2024-02-04T04:11:51;965.73;;;889.10;;
3000;SDS011;1510;51.072;6.678;2024-02-04T04:14:18;969.37;;;893.47;;
3000;SDS011;1510;51.072;6.678;2024-02-04T04:16:45;958.47;;;881.97;;
3000;SDS011;1510;51.072;6.678;2024-02-04T04:19:12;946.07;;;870.47;;
3000;SDS011;1510;51.072;6.678;2024-02-04T04:21:37;950.97;;;875.47;;
3000;SDS011;1510;51.072;6.678;2024-02-04T04:24:05;961.37;;;883.80;;
3000;SDS011;1510;51.072;6.678;2024-02-04T04:26:33;978.87;;;901.47;;
3000;SDS011;1510;51.072;6.678;2024-02-04T04:29:00;949.03;;;872.50;;
3000;SDS011;1510;51.072;6.678;2024-02-04T04:31:27;939.93;;;865.43;;
3000;SDS011;1510;51.072;6.678;2024-02-04T04:33:54;947.00;;;872.17;;
3000;SDS011;1510;51.072;6.678;2024-02-04T04:36:21;962.97;;;887.20;;
3000;SDS011;1510;51.072;6.678;2024-02-04T04:38:48;972.33;;;896.00;;
3000;SDS011;1510;51.072;6.678;2024-02-04T04:41:16;932.67;;;858.10;;
3000;SDS011;1510;51.072;6.678;2024-02-04T04:43:44;942.13;;;867.77;;
3000;SDS011;1510;51.072;6.678;2024-02-04T04:46:11;969.40;;;894.90;;
3000;SDS011;1510;51.072;6.678;2024-02-04T04:48:38;989.73;;;915.77;;
3000;SDS011;1510;51.072;6.678;2024-02-04T04:51:07;950.47;;;877.33;;
3000;SDS011;1510;51.072;6.678;2024-02-04T04:53:34;960.13;;;886.13;;
3000;SDS011;1510;51.072;6.678;2024-02-04T04:56:00;951.47;;;877.57;;
3000;SDS011;1510;51.072;6.678;2024-02-04T04:58:27;960.60;;;886.30;;
3000;SDS011;1510;51.072;6.678;2024-02-04T05:00:55;948.17;;;875.17;;
3000;SDS011;1510;51.072;6.678;2024-02-04T05:03:22;948.17;;;874.97;;
3000;SDS011;1510;51.072;6.678;2024-02-04T05:05:49;956.27;;;883.37;;
3000;SDS011;1510;51.072;6.678;2024-02-04T05:08:16;946.23;;;872.57;;
3000;SDS011;1510;51.072;6.678;2024-02-04T05:10:42;952.53;;;878.57;;
3000;SDS011;1510;51.072;6.678;2024-02-04T05:13:09;941.57;;;867.90;;
3000;SDS011;1510;51.072;6.678;2024-02-04T05:15:36;948.40;;;875.30;;
3000;SDS011;1510;51.072;6.678;2024-02-04T05:18:04;950.47;;;877.13;;
3000;SDS011;1510;51.072;6.678;2024-02-04T05:20:31;935.87;;;861.47;;
3000;SDS011;1510;51.072;6.678;2024-02-04T05:22:58;930.03;;;857.13;;
3000;SDS011;1510;51.072;6.678;2024-02-04T05:25:25;943.53;;;870.83;;
3000;SDS011;1510;51.072;6.678;2024-02-04T05:27:52;962.03;;;889.97;;
3000;SDS011;1510;51.072;6.678;2024-02-04T05:30:19;942.47;;;869.17;;
3000;SDS011;1510;51.072;6.678;2024-02-04T05:32:46;954.13;;;880.07;;
3000;SDS011;1510;51.072;6.678;2024-02-04T05:35:14;942.33;;;869.60;;
3000;SDS011;1510;51.072;6.678;2024-02-04T05:37:41;964.27;;;890.37;;
3000;SDS011;1510;51.072;6.678;2024-02-04T05:40:07;956.83;;;882.27;;
3000;SDS011;1510;51.072;6.678;2024-02-04T05:42:35;954.30;;;879.40;;
3000;SDS011;1510;51.072;6.678;2024-02-04T05:45:02;964.10;;;888.17;;
3000;SDS011;1510;51.072;6.678;2024-02-04T05:47:30;969.73;;;895.07;;
3000;SDS011;1510;51.072;6.678;2024-02-04T05:49:57;969.83;;;895.17;;
3000;SDS011;1510;51.072;6.678;2024-02-04T05:52:25;948.37;;;875.20;;
3000;SDS011;1510;51.072;6.678;2024-02-04T05:54:52;947.67;;;874.00;;
3000;SDS011;1510;51.072;6.678;2024-02-04T05:57:19;961.03;;;885.73;;
3000;SDS011;1510;51.072;6.678;2024-02-04T05:59:46;964.80;;;888.80;;
3000;SDS011;1510;51.072;6.678;2024-02-04T06:02:13;957.80;;;882.10;;
3000;SDS011;1510;51.072;6.678;2024-02-04T06:04:40;957.80;;;884.07;;
3000;SDS011;1510;51.072;6.678;2024-02-04T06:07:07;958.27;;;883.67;;
3000;SDS011;1510;51.072;6.678;2024-02-04T06:09:35;959.10;;;884.90;;
3000;SDS011;1510;51.072;6.678;2024-02-04T06:12:02;943.47;;;869.67;;
3000;SDS011;1510;51.072;6.678;2024-02-04T06:14:31;933.70;;;860.53;;
3000;SDS011;1510;51.072;6.678;2024-02-04T06:16:59;914.70;;;841.10;;
3000;SDS011;1510;51.072;6.678;2024-02-04T06:19:26;924.70;;;851.93;;
3000;SDS011;1510;51.072;6.678;2024-02-04T06:21:53;940.97;;;866.37;;
3000;SDS011;1510;51.072;6.678;2024-02-04T06:24:19;923.50;;;851.00;;
3000;SDS011;1510;51.072;6.678;2024-02-04T06:26:47;931.83;;;858.63;;
3000;SDS011;1510;51.072;6.678;2024-02-04T06:29:14;923.70;;;851.00;;
3000;SDS011;1510;51.072;6.678;2024-02-04T06:31:43;916.67;;;844.67;;
3000;SDS011;1510;51.072;6.678;2024-02-04T06:34:11;939.70;;;867.77;;
3000;SDS011;1510;51.072;6.678;2024-02-04T06:36:41;912.30;;;840.23;;
3000;SDS011;1510;51.072;6.678;2024-02-04T06:39:09;937.43;;;863.57;;
3000;SDS011;1510;51.072;6.678;2024-02-04T06:41:36;912.57;;;838.37;;
3000;SDS011;1510;51.072;6.678;2024-02-04T06:44:04;978.77;;;899.97;;
3000;SDS011;1510;51.072;6.678;2024-02-04T06:46:31;970.47;;;892.73;;
3000;SDS011;1510;51.072;6.678;2024-02-04T06:48:58;972.70;;;894.03;;
3000;SDS011;1510;51.072;6.678;2024-02-04T06:51:26;968.40;;;889.50;;
3000;SDS011;1510;51.072;6.678;2024-02-04T06:53:53;973.17;;;895.77;;
3000;SDS011;1510;51.072;6.678;2024-02-04T06:56:19;978.63;;;900.13;;
3000;SDS011;1510;51.072;6.678;2024-02-04T06:58:46;966.97;;;888.40;;
3000;SDS011;1510;51.072;6.678;2024-02-04T07:01:14;964.87;;;887.20;;
3000;SDS011;1510;51.072;6.678;2024-02-04T07:03:41;961.37;;;881.30;;
3000;SDS011;1510;51.072;6.678;2024-02-04T07:06:08;977.90;;;895.83;;
3000;SDS011;1510;51.072;6.678;2024-02-04T07:08:35;992.47;;;910.97;;
3000;SDS011;1510;51.072;6.678;2024-02-04T07:11:02;1009.27;;;926.57;;
3000;SDS011;1510;51.072;6.678;2024-02-04T07:13:29;996.87;;;915.00;;
3000;SDS011;1510;51.072;6.678;2024-02-04T07:15:56;995.57;;;914.07;;
3000;SDS011;1510;51.072;6.678;2024-02-04T07:18:24;966.90;;;887.50;;
3000;SDS011;1510;51.072;6.678;2024-02-04T07:20:51;975.40;;;893.87;;
3000;SDS011;1510;51.072;6.678;2024-02-04T07:23:18;960.27;;;879.30;;
3000;SDS011;1510;51.072;6.678;2024-02-04T07:25:45;958.97;;;879.77;;
3000;SDS011;1510;51.072;6.678;2024-02-04T07:28:11;963.57;;;883.40;;
3000;SDS011;1510;51.072;6.678;2024-02-04T07:30:38;963.57;;;883.77;;
3000;SDS011;1510;51.072;6.678;2024-02-04T07:33:05;964.37;;;883.77;;
3000;SDS011;1510;51.072;6.678;2024-02-04T07:35:33;965.83;;;886.77;;
3000;SDS011;1510;51.072;6.678;2024-02-04T07:38:00;970.67;;;892.90;;
3000;SDS011;1510;51.072;6.678;2024-02-04T07:40:27;960.13;;;883.70;;
3000;SDS011;1510;51.072;6.678;2024-02-04T07:42:55;963.47;;;886.67;;
3000;SDS011;1510;51.072;6.678;2024-02-04T07:45:22;959.73;;;883.33;;
3000;SDS011;1510;51.072;6.678;2024-02-04T07:47:49;920.83;;;846.27;;
3000;SDS011;1510;51.072;6.678;2024-02-04T07:50:16;977.27;;;901.07;;
3000;SDS011;1510;51.072;6.678;2024-02-04T07:52:44;983.50;;;907.90;;
3000;SDS011;1510;51.072;6.678;2024-02-04T07:55:11;928.00;;;852.13;;
3000;SDS011;1510;51.072;6.678;2024-02-04T07:57:37;914.43;;;839.33;;
3000;SDS011;1510;51.072;6.678;2024-02-04T08:00:05;914.33;;;840.20;;
3000;SDS011;1510;51.072;6.678;2024-02-04T08:02:35;947.60;;;872.50;;
3000;SDS011;1510;51.072;6.678;2024-02-04T08:05:03;955.53;;;880.47;;
3000;SDS011;1510;51.072;6.678;2024-02-04T08:07:30;955.60;;;878.40;;
3000;SDS011;1510;51.072;6.678;2024-02-04T08:09:58;922.67;;;847.20;;
3000;SDS011;1510;51.072;6.678;2024-02-04T08:12:25;906.47;;;831.40;;
3000;SDS011;1510;51.072;6.678;2024-02-04T08:14:52;898.03;;;826.30;;
3000;SDS011;1510;51.072;6.678;2024-02-04T08:17:19;917.50;;;845.73;;
3000;SDS011;1510;51.072;6.678;2024-02-04T08:19:46;918.80;;;846.03;;
3000;SDS011;1510;51.072;6.678;2024-02-04T08:22:13;948.80;;;877.20;;
3000;SDS011;1510;51.072;6.678;2024-02-04T08:24:40;948.37;;;875.37;;
3000;SDS011;1510;51.072;6.678;2024-02-04T08:27:08;915.53;;;844.20;;
3000;SDS011;1510;51.072;6.678;2024-02-04T08:29:35;892.17;;;821.63;;
3000;SDS011;1510;51.072;6.678;2024-02-04T08:32:01;881.47;;;813.40;;
3000;SDS011;1510;51.072;6.678;2024-02-04T08:34:28;878.33;;;811.00;;
3000;SDS011;1510;51.072;6.678;2024-02-04T08:36:55;864.90;;;798.47;;
3000;SDS011;1510;51.072;6.678;2024-02-04T08:39:22;875.53;;;809.17;;
3000;SDS011;1510;51.072;6.678;2024-02-04T08:41:50;879.63;;;813.47;;
3000;SDS011;1510;51.072;6.678;2024-02-04T08:44:18;886.83;;;819.77;;
3000;SDS011;1510;51.072;6.678;2024-02-04T08:46:45;875.57;;;809.47;;
3000;SDS011;1510;51.072;6.678;2024-02-04T08:49:12;855.70;;;789.70;;
3000;SDS011;1510;51.072;6.678;2024-02-04T08:51:39;855.87;;;789.97;;
3000;SDS011;1510;51.072;6.678;2024-02-04T08:54:06;849.53;;;784.93;;
3000;SDS011;1510;51.072;6.678;2024-02-04T08:56:33;836.77;;;771.57;;
3000;SDS011;1510;51.072;6.678;2024-02-04T08:59:00;855.73;;;791.53;;
3000;SDS011;1510;51.072;6.678;2024-02-04T09:01:28;851.80;;;789.87;;
3000;SDS011;1510;51.072;6.678;2024-02-04T09:03:54;825.10;;;761.47;;
3000;SDS011;1510;51.072;6.678;2024-02-04T09:06:21;855.00;;;789.83;;
3000;SDS011;1510;51.072;6.678;2024-02-04T09:08:48;831.40;;;768.70;;
3000;SDS011;1510;51.072;6.678;2024-02-04T09:11:15;832.10;;;769.10;;
3000;SDS011;1510;51.072;6.678;2024-02-04T09:13:44;833.83;;;770.53;;
3000;SDS011;1510;51.072;6.678;2024-02-04T09:16:11;805.83;;;743.37;;
3000;SDS011;1510;51.072;6.678;2024-02-04T09:18:39;826.67;;;764.43;;
3000;SDS011;1510;51.072;6.678;2024-02-04T09:21:06;835.23;;;772.47;;
3000;SDS011;1510;51.072;6.678;2024-02-04T09:23:33;825.50;;;763.90;;
3000;SDS011;1510;51.072;6.678;2024-02-04T09:26:00;831.23;;;768.70;;
3000;SDS011;1510;51.072;6.678;2024-02-04T09:28:26;843.23;;;780.97;;
3000;SDS011;1510;51.072;6.678;2024-02-04T09:30:53;841.23;;;780.10;;
3000;SDS011;1510;51.072;6.678;2024-02-04T09:33:20;842.83;;;780.33;;
3000;SDS011;1510;51.072;6.678;2024-02-04T09:35:49;840.70;;;777.90;;
3000;SDS011;1510;51.072;6.678;2024-02-04T09:38:15;841.00;;;780.93;;
3000;SDS011;1510;51.072;6.678;2024-02-04T09:40:43;848.13;;;787.83;;
3000;SDS011;1510;51.072;6.678;2024-02-04T09:43:10;843.57;;;784.00;;
3000;SDS011;1510;51.072;6.678;2024-02-04T09:45:38;821.60;;;763.00;;
3000;SDS011;1510;51.072;6.678;2024-02-04T09:48:06;831.97;;;772.57;;
3000;SDS011;1510;51.072;6.678;2024-02-04T09:50:34;817.70;;;759.00;;
3000;SDS011;1510;51.072;6.678;2024-02-04T09:53:02;826.07;;;768.57;;
3000;SDS011;1510;51.072;6.678;2024-02-04T09:55:32;827.80;;;769.40;;
3000;SDS011;1510;51.072;6.678;2024-02-04T09:58:00;837.17;;;778.57;;
3000;SDS011;1510;51.072;6.678;2024-02-04T10:00:27;836.47;;;776.97;;
3000;SDS011;1510;51.072;6.678;2024-02-04T10:02:56;818.57;;;760.57;;
3000;SDS011;1510;51.072;6.678;2024-02-04T10:05:24;809.50;;;753.67;;
3000;SDS011;1510;51.072;6.678;2024-02-04T10:07:51;823.60;;;767.30;;
3000;SDS011;1510;51.072;6.678;2024-02-04T10:10:20;820.13;;;764.60;;
3000;SDS011;1510;51.072;6.678;2024-02-04T10:12:47;820.70;;;766.20;;
3000;SDS011;1510;51.072;6.678;2024-02-04T10:15:13;825.80;;;770.30;;
3000;SDS011;1510;51.072;6.678;2024-02-04T10:17:42;820.43;;;764.83;;
3000;SDS011;1510;51.072;6.678;2024-02-04T10:20:11;824.67;;;769.17;;
3000;SDS011;1510;51.072;6.678;2024-02-04T10:22:38;829.50;;;773.70;;
3000;SDS011;1510;51.072;6.678;2024-02-04T10:25:05;826.33;;;770.80;;
3000;SDS011;1510;51.072;6.678;2024-02-04T10:27:34;831.60;;;776.13;;
3000;SDS011;1510;51.072;6.678;2024-02-04T10:30:01;832.90;;;777.60;;
3000;SDS011;1510;51.072;6.678;2024-02-04T10:32:29;833.90;;;777.80;;
3000;SDS011;1510;51.072;6.678;2024-02-04T10:34:57;828.70;;;774.80;;
3000;SDS011;1510;51.072;6.678;2024-02-04T10:37:24;818.93;;;766.23;;
3000;SDS011;1510;51.072;6.678;2024-02-04T10:39:51;809.10;;;757.27;;
3000;SDS011;1510;51.072;6.678;2024-02-04T10:42:18;797.47;;;746.67;;
3000;SDS011;1510;51.072;6.678;2024-02-04T10:44:52;805.17;;;753.40;;
3000;SDS011;1510;51.072;6.678;2024-02-04T10:47:22;796.97;;;745.47;;
3000;SDS011;1510;51.072;6.678;2024-02-04T10:49:51;802.63;;;750.73;;
3000;SDS011;1510;51.072;6.678;2024-02-04T10:52:19;801.00;;;749.47;;
3000;SDS011;1510;51.072;6.678;2024-02-04T10:54:49;806.50;;;755.07;;
3000;SDS011;1510;51.072;6.678;2024-02-04T10:57:21;792.20;;;741.30;;
3000;SDS011;1510;51.072;6.678;2024-02-04T10:59:48;799.90;;;749.20;;
3000;SDS011;1510;51.072;6.678;2024-02-04T11:02:18;786.07;;;734.97;;
3000;SDS011;1510;51.072;6.678;2024-02-04T11:04:48;780.07;;;729.20;;
3000;SDS011;1510;51.072;6.678;2024-02-04T11:07:15;787.97;;;736.30;;
3000;SDS011;1510;51.072;6.678;2024-02-04T11:09:44;796.27;;;743.60;;
3000;SDS011;1510;51.072;6.678;2024-02-04T11:12:13;796.83;;;744.77;;
3000;SDS011;1510;51.072;6.678;2024-02-04T11:14:42;794.60;;;741.60;;
3000;SDS011;1510;51.072;6.678;2024-02-04T11:17:20;780.47;;;727.17;;
3000;SDS011;1510;51.072;6.678;2024-02-04T11:20:07;782.40;;;729.30;;
3000;SDS011;1510;51.072;6.678;2024-02-04T11:22:48;775.77;;;722.67;;
3000;SDS011;1510;51.072;6.678;2024-02-04T11:25:36;788.70;;;735.00;;
3000;SDS011;1510;51.072;6.678;2024-02-04T11:28:10;772.13;;;720.37;;
3000;SDS011;1510;51.072;6.678;2024-02-04T11:30:38;785.27;;;731.53;;
3000;SDS011;1510;51.072;6.678;2024-02-04T11:33:07;783.00;;;730.60;;
3000;SDS011;1510;51.072;6.678;2024-02-04T11:35:36;789.17;;;734.67;;
3000;SDS011;1510;51.072;6.678;2024-02-04T11:38:03;803.10;;;748.60;;
3000;SDS011;1510;51.072;6.678;2024-02-04T11:40:31;793.27;;;738.90;;
3000;SDS011;1510;51.072;6.678;2024-02-04T11:43:04;784.03;;;730.73;;
3000;SDS011;1510;51.072;6.678;2024-02-04T11:45:31;777.33;;;724.70;;
3000;SDS011;1510;51.072;6.678;2024-02-04T11:48:00;792.03;;;739.83;;
3000;SDS011;1510;51.072;6.678;2024-02-04T11:50:29;782.43;;;730.90;;
3000;SDS011;1510;51.072;6.678;2024-02-04T11:53:01;778.30;;;726.13;;
3000;SDS011;1510;51.072;6.678;2024-02-04T11:55:31;790.40;;;737.00;;
3000;SDS011;1510;51.072;6.678;2024-02-04T11:57:58;788.70;;;735.80;;
3000;SDS011;1510;51.072;6.678;2024-02-04T12:00:26;790.23;;;736.50;;
3000;SDS011;1510;51.072;6.678;2024-02-04T12:02:59;783.00;;;728.60;;
3000;SDS011;1510;51.072;6.678;2024-02-04T12:05:30;786.07;;;732.27;;
3000;SDS011;1510;51.072;6.678;2024-02-04T12:08:01;785.83;;;731.57;;
3000;SDS011;1510;51.072;6.678;2024-02-04T12:10:29;785.40;;;729.60;;
3000;SDS011;1510;51.072;6.678;2024-02-04T12:12:57;799.87;;;741.60;;
3000;SDS011;1510;51.072;6.678;2024-02-04T12:15:24;795.57;;;736.30;;
3000;SDS011;1510;51.072;6.678;2024-02-04T12:17:51;799.10;;;739.67;;
3000;SDS011;1510;51.072;6.678;2024-02-04T12:20:18;807.23;;;746.93;;
3000;SDS011;1510;51.072;6.678;2024-02-04T12:22:46;817.80;;;755.60;;
3000;SDS011;1510;51.072;6.678;2024-02-04T12:25:14;795.60;;;735.37;;
3000;SDS011;1510;51.072;6.678;2024-02-04T12:27:43;808.33;;;748.47;;
3000;SDS011;1510;51.072;6.678;2024-02-04T12:30:13;835.50;;;773.80;;
3000;SDS011;1510;51.072;6.678;2024-02-04T12:32:40;834.83;;;771.07;;
3000;SDS011;1510;51.072;6.678;2024-02-04T12:35:07;823.53;;;760.27;;
3000;SDS011;1510;51.072;6.678;2024-02-04T12:37:34;827.47;;;763.33;;
3000;SDS011;1510;51.072;6.678;2024-02-04T12:40:03;819.97;;;756.47;;
3000;SDS011;1510;51.072;6.678;2024-02-04T12:42:31;826.63;;;762.93;;
3000;SDS011;1510;51.072;6.678;2024-02-04T12:44:59;840.93;;;776.87;;
3000;SDS011;1510;51.072;6.678;2024-02-04T12:47:26;865.57;;;800.47;;
3000;SDS011;1510;51.072;6.678;2024-02-04T12:49:57;858.90;;;793.33;;
3000;SDS011;1510;51.072;6.678;2024-02-04T12:52:27;855.73;;;790.67;;
3000;SDS011;1510;51.072;6.678;2024-02-04T12:54:56;855.83;;;788.53;;
3000;SDS011;1510;51.072;6.678;2024-02-04T12:57:24;824.57;;;761.20;;
3000;SDS011;1510;51.072;6.678;2024-02-04T12:59:52;825.10;;;760.53;;
3000;SDS011;1510;51.072;6.678;2024-02-04T13:02:30;839.30;;;774.37;;
3000;SDS011;1510;51.072;6.678;2024-02-04T13:04:58;856.83;;;792.47;;
3000;SDS011;1510;51.072;6.678;2024-02-04T13:07:25;851.87;;;788.23;;
3000;SDS011;1510;51.072;6.678;2024-02-04T13:09:57;846.33;;;782.67;;
3000;SDS011;1510;51.072;6.678;2024-02-04T13:12:26;841.67;;;777.63;;
3000;SDS011;1510;51.072;6.678;2024-02-04T13:14:53;853.53;;;789.90;;
3000;SDS011;1510;51.072;6.678;2024-02-04T13:17:20;848.20;;;786.27;;
3000;SDS011;1510;51.072;6.678;2024-02-04T13:19:47;862.17;;;799.77;;
3000;SDS011;1510;51.072;6.678;2024-02-04T13:22:14;869.20;;;805.70;;
3000;SDS011;1510;51.072;6.678;2024-02-04T13:24:40;877.47;;;812.80;;
3000;SDS011;1510;51.072;6.678;2024-02-04T13:27:08;876.83;;;811.50;;
3000;SDS011;1510;51.072;6.678;2024-02-04T13:29:36;877.57;;;812.67;;
3000;SDS011;1510;51.072;6.678;2024-02-04T13:32:03;876.90;;;812.70;;
3000;SDS011;1510;51.072;6.678;2024-02-04T13:34:31;841.60;;;779.27;;
3000;SDS011;1510;51.072;6.678;2024-02-04T13:36:58;848.53;;;786.30;;
3000;SDS011;1510;51.072;6.678;2024-02-04T13:39:26;830.07;;;769.57;;
3000;SDS011;1510;51.072;6.678;2024-02-04T13:41:53;827.87;;;767.87;;
3000;SDS011;1510;51.072;6.678;2024-02-04T13:44:20;832.70;;;772.17;;
3000;SDS011;1510;51.072;6.678;2024-02-04T13:46:48;825.07;;;766.53;;
3000;SDS011;1510;51.072;6.678;2024-02-04T13:49:15;823.13;;;764.50;;
3000;SDS011;1510;51.072;6.678;2024-02-04T13:51:42;823.10;;;765.17;;
3000;SDS011;1510;51.072;6.678;2024-02-04T13:54:09;808.97;;;753.93;;
3000;SDS011;1510;51.072;6.678;2024-02-04T13:56:40;824.17;;;767.67;;
3000;SDS011;1510;51.072;6.678;2024-02-04T13:59:06;826.90;;;770.83;;
3000;SDS011;1510;51.072;6.678;2024-02-04T14:01:33;814.40;;;758.70;;
3000;SDS011;1510;51.072;6.678;2024-02-04T14:04:01;813.20;;;757.60;;
3000;SDS011;1510;51.072;6.678;2024-02-04T14:06:28;815.53;;;760.57;;
3000;SDS011;1510;51.072;6.678;2024-02-04T14:08:55;817.70;;;761.90;;
3000;SDS011;1510;51.072;6.678;2024-02-04T14:11:22;813.13;;;756.80;;
3000;SDS011;1510;51.072;6.678;2024-02-04T14:13:49;817.50;;;760.50;;
3000;SDS011;1510;51.072;6.678;2024-02-04T14:16:16;814.77;;;759.77;;
3000;SDS011;1510;51.072;6.678;2024-02-04T14:18:43;819.00;;;761.67;;
3000;SDS011;1510;51.072;6.678;2024-02-04T14:21:12;806.97;;;752.27;;